Time;durP1;ratioP1;P1;durP2;ratioP2;P2;SDS_P1;SDS_P2;PMS_P1;PMS_P2;Temp;Humidity;BMP_temperature;BMP_pressure;BME280_temperature;BME280_humidity;BME280_pressure;Samples;Min_cycle;Max_cycle;Signal;HPM_P1;HPM_P2
2022/11/20 00:01:09;;;;;;;17.20;10.60;;;;;;;8.23;61.21;100932.64;105677;1306;21973;-67
2022/11/20 00:03:35;;;;;;;13.80;11.10;;;;;;;8.23;61.10;100939.11;106084;1304;21988;-67
2022/11/20 00:06:07;;;;;;;14.10;11.40;;;;;;;8.21;60.89;100946.44;106060;1304;21970;-67
2022/11/20 00:08:33;;;;;;;14.80;11.50;;;;;;;8.18;60.97;100950.80;106089;1304;21961;-63
2022/11/20 00:11:06;;;;;;;15.30;11.10;;;;;;;8.15;61.20;100944.32;105737;1306;22894;-63
2022/11/20 00:13:32;;;;;;;15.40;10.30;;;;;;;8.13;61.28;100939.75;105962;1305;21965;-68
2022/11/20 00:15:59;;;;;;;12.60;10.10;;;;;;;8.15;60.97;100933.12;105968;1305;21963;-63
2022/11/20 00:18:28;;;;;;;16.10;10.80;;;;;;;8.16;61.08;100928.76;105990;1306;23752;-69
2022/11/20 00:21:01;;;;;;;15.40;10.70;;;;;;;8.15;60.93;100921.42;106138;1305;21980;-64
2022/11/20 00:23:27;;;;;;;14.50;10.80;;;;;;;8.10;61.03;100913.85;105800;1305;21959;-64
2022/11/20 00:25:53;;;;;;;14.50;11.00;;;;;;;8.08;61.12;100912.45;106076;1304;23621;-64
2022/11/20 00:28:18;;;;;;;13.00;10.30;;;;;;;8.06;60.95;100909.11;106055;1306;21968;-71
2022/11/20 00:30:45;;;;;;;14.50;10.50;;;;;;;8.02;60.87;100899.99;106046;1306;21965;-71
2022/11/20 00:33:11;;;;;;;12.90;10.10;;;;;;;8.02;61.09;100885.32;106049;1306;21968;-72
2022/11/20 00:35:37;;;;;;;14.20;10.10;;;;;;;8.01;60.85;100866.80;106026;1306;21973;-64
2022/11/20 00:38:03;;;;;;;13.20;9.60;;;;;;;8.01;60.85;100854.20;105987;1300;21959;-63
2022/11/20 00:40:29;;;;;;;16.40;11.10;;;;;;;8.01;60.89;100851.75;106063;1304;21973;-64
2022/11/20 00:42:55;;;;;;;16.20;10.30;;;;;;;7.99;60.95;100846.33;106064;1301;21964;-63
2022/11/20 00:45:21;;;;;;;15.50;10.10;;;;;;;7.95;60.82;100842.47;106080;1304;21964;-71
2022/11/20 00:47:46;;;;;;;13.60;10.60;;;;;;;7.94;60.85;100837.92;106057;1304;21944;-70
2022/11/20 00:50:13;;;;;;;18.10;12.00;;;;;;;7.93;60.88;100834.08;105977;1306;21968;-71
2022/11/20 00:52:40;;;;;;;15.50;10.80;;;;;;;7.93;61.15;100825.33;105939;1306;22014;-62
2022/11/20 00:55:06;;;;;;;15.20;10.80;;;;;;;7.94;61.08;100819.40;105939;1304;21959;-62
2022/11/20 00:57:32;;;;;;;14.90;11.90;;;;;;;7.96;61.25;100810.30;106093;1306;21959;-62
2022/11/20 00:59:58;;;;;;;15.40;11.50;;;;;;;7.96;61.24;100804.02;105396;1307;1002616;-62
2022/11/20 01:02:23;;;;;;;13.90;10.80;;;;;;;7.89;61.09;100798.58;106167;1306;22004;-62
2022/11/20 01:04:50;;;;;;;16.20;11.00;;;;;;;7.72;61.45;100786.08;106078;1301;21953;-62
2022/11/20 01:07:16;;;;;;;15.30;11.50;;;;;;;7.68;61.67;100766.30;106121;1304;21965;-63
2022/11/20 01:09:42;;;;;;;15.00;11.30;;;;;;;7.66;61.59;100751.96;104577;1304;1002606;-62
2022/11/20 01:12:12;;;;;;;17.30;13.00;;;;;;;7.66;61.63;100761.75;106080;1305;21947;-63
2022/11/20 01:14:39;;;;;;;14.40;11.30;;;;;;;7.63;61.64;100790.90;106006;1295;21962;-62
2022/11/20 01:17:07;;;;;;;15.00;11.50;;;;;;;7.58;61.82;100800.30;105910;1305;21967;-62
2022/11/20 01:19:32;;;;;;;15.20;11.10;;;;;;;7.58;61.80;100790.86;105906;1306;21969;-62
2022/11/20 01:21:59;;;;;;;16.80;12.10;;;;;;;7.56;61.88;100784.58;105948;1306;21956;-71
2022/11/20 01:24:25;;;;;;;15.00;11.40;;;;;;;7.56;61.84;100777.77;106015;1306;21961;-62
2022/11/20 01:26:52;;;;;;;14.60;10.60;;;;;;;7.57;61.66;100774.45;105915;1306;21968;-62
2022/11/20 01:29:23;;;;;;;15.50;11.20;;;;;;;7.57;61.70;100778.46;106087;1306;21954;-62
2022/11/20 01:31:51;;;;;;;;;;;;;;;7.59;61.85;100783.20;105842;1306;21946;-71
2022/11/20 01:34:19;;;;;;;15.10;10.80;;;;;;;7.56;61.83;100777.94;106026;1301;21986;-61
2022/11/20 01:36:48;;;;;;;16.30;12.50;;;;;;;7.53;61.80;100769.88;106092;1305;21958;-70
2022/11/20 01:39:19;;;;;;;14.60;11.30;;;;;;;7.52;62.01;100770.39;105935;1295;22058;-61
2022/11/20 01:44:44;;;;;;;15.00;12.10;;;;;;;7.47;61.91;100776.30;105947;1306;21975;-62
2022/11/20 01:47:10;;;;;;;17.00;10.90;;;;;;;7.47;61.89;100768.10;105971;1306;21971;-71
2022/11/20 01:49:42;;;;;;;18.10;11.60;;;;;;;7.54;61.82;100763.60;105897;1307;21979;-70
2022/11/20 01:52:15;;;;;;;17.40;12.00;;;;;;;7.56;61.63;100760.46;106199;1304;22122;-71
2022/11/20 01:55:06;;;;;;;16.90;12.00;;;;;;;7.61;61.61;100754.56;106126;1306;21974;-72
2022/11/20 01:57:33;;;;;;;16.00;11.60;;;;;;;7.63;61.74;100750.39;105843;1306;21971;-62
2022/11/20 02:00:10;;;;;;;19.20;12.20;;;;;;;7.65;61.60;100751.45;105961;1290;22752;-70
2022/11/20 02:02:37;;;;;;;16.70;12.00;;;;;;;7.66;61.49;100757.92;105981;1306;21970;-71
2022/11/20 02:05:09;;;;;;;17.40;11.60;;;;;;;7.69;61.51;100770.16;105674;1304;21974;-63
2022/11/20 02:07:36;;;;;;;17.30;10.80;;;;;;;7.70;61.35;100763.35;106046;1305;21991;-62
2022/11/20 02:10:02;;;;;;;17.80;12.10;;;;;;;7.72;61.53;100744.33;105774;1306;21957;-72
2022/11/20 02:15:14;;;;;;;16.20;12.60;;;;;;;7.53;61.76;100719.05;105765;1300;21954;-71
2022/11/20 02:17:40;;;;;;;18.20;11.40;;;;;;;7.52;61.71;100710.33;105981;1299;21959;-63
2022/11/20 02:20:09;;;;;;;15.80;11.00;;;;;;;7.53;61.75;100716.44;105830;1307;21950;-74
2022/11/20 02:22:41;;;;;;;14.50;10.90;;;;;;;7.54;61.80;100732.86;105989;1304;21956;-74
2022/11/20 02:25:07;;;;;;;14.30;10.90;;;;;;;7.65;61.71;100727.88;105928;1306;21956;-63
2022/11/20 02:27:41;;;;;;;14.30;11.00;;;;;;;7.66;61.41;100710.76;105817;1307;23081;-64
2022/11/20 02:30:10;;;;;;;16.20;11.20;;;;;;;7.66;61.28;100711.11;105815;1302;21964;-64
2022/11/20 02:32:37;;;;;;;18.90;11.70;;;;;;;7.65;61.33;100706.91;106167;1306;22004;-64
2022/11/20 02:35:20;;;;;;;15.50;11.10;;;;;;;7.64;61.33;100710.91;106073;1305;21963;-71
2022/11/20 02:37:48;;;;;;;15.00;10.30;;;;;;;7.62;61.30;100705.48;106049;1304;21970;-72
2022/11/20 02:40:14;;;;;;;15.30;10.40;;;;;;;7.60;61.31;100703.38;106064;1304;21970;-73
2022/11/20 02:42:40;;;;;;;15.00;11.40;;;;;;;7.59;61.26;100700.23;105878;1287;21970;-74
2022/11/20 02:45:06;;;;;;;16.90;11.30;;;;;;;7.57;61.13;100700.23;106116;1304;21952;-74
2022/11/20 02:47:33;;;;;;;17.70;11.20;;;;;;;7.55;61.35;100711.39;105967;1306;21970;-74
2022/11/20 02:49:59;;;;;;;15.20;11.00;;;;;;;7.55;61.40;100715.41;105879;1303;21970;-74
2022/11/20 02:52:25;;;;;;;18.20;10.30;;;;;;;7.53;61.32;100719.23;105964;1305;21963;-62
2022/11/20 02:54:51;;;;;;;13.60;9.20;;;;;;;7.53;61.53;100719.23;106032;1306;21978;-74
2022/11/20 02:57:17;;;;;;;14.00;10.00;;;;;;;7.58;61.22;100709.66;106121;1304;21977;-62
2022/11/20 02:59:43;;;;;;;14.60;10.40;;;;;;;7.60;61.22;100707.23;106085;1301;21982;-62
2022/11/20 03:02:09;;;;;;;14.10;10.10;;;;;;;7.60;61.31;100703.73;105779;1306;21953;-75
2022/11/20 03:04:35;;;;;;;14.60;10.40;;;;;;;7.57;61.16;100699.88;106021;1304;21967;-62
2022/11/20 03:07:02;;;;;;;14.10;10.00;;;;;;;7.54;61.14;100705.80;105917;1306;21959;-63
2022/11/20 03:09:28;;;;;;;15.20;11.00;;;;;;;7.49;61.07;100699.67;106002;1306;21969;-74
2022/11/20 03:11:54;;;;;;;14.80;9.60;;;;;;;7.47;61.50;100683.59;106059;1306;22005;-63
2022/11/20 03:14:19;;;;;;;13.50;9.70;;;;;;;7.48;61.36;100660.55;105814;1306;21965;-74
2022/11/20 03:16:45;;;;;;;13.80;10.70;;;;;;;7.53;61.29;100652.19;106122;1307;21955;-62
2022/11/20 03:19:12;;;;;;;12.60;10.30;;;;;;;7.62;60.97;100652.40;106146;1295;22055;-73
2022/11/20 03:21:39;;;;;;;13.40;10.30;;;;;;;7.59;60.82;100644.88;106134;1304;22055;-74
2022/11/20 03:24:05;;;;;;;13.30;11.00;;;;;;;7.53;60.82;100648.16;106052;1305;21965;-62
2022/11/20 03:26:34;;;;;;;13.90;10.30;;;;;;;7.48;60.64;100641.17;105942;1304;21975;-74
2022/11/20 03:29:02;;;;;;;16.20;10.60;;;;;;;7.31;61.27;100632.17;105979;1296;23049;-64
2022/11/20 03:31:32;;;;;;;15.20;9.70;;;;;;;7.27;61.52;100634.26;106103;1301;21956;-63
2022/11/20 03:34:00;;;;;;;14.40;10.40;;;;;;;7.29;61.53;100638.80;106015;1303;21973;-75
2022/11/20 03:36:25;;;;;;;14.00;10.60;;;;;;;7.31;61.60;100637.92;106036;1304;21964;-63
2022/11/20 03:38:55;;;;;;;15.20;11.20;;;;;;;7.32;61.45;100633.23;105982;1304;21964;-64
2022/11/20 03:41:23;;;;;;;15.40;11.90;;;;;;;7.32;61.64;100640.90;105931;1306;21946;-76
2022/11/20 03:43:54;;;;;;;19.80;11.10;;;;;;;7.32;61.54;100648.92;106122;1305;21966;-75
2022/11/20 03:46:20;;;;;;;12.60;10.00;;;;;;;7.33;61.65;100641.95;106027;1306;21947;-75
2022/11/20 03:48:48;;;;;;;16.60;10.30;;;;;;;7.34;61.81;100639.52;106053;1304;21960;-63
2022/11/20 03:51:15;;;;;;;14.60;10.30;;;;;;;7.33;61.68;100636.71;106189;1305;21977;-63
2022/11/20 03:53:42;;;;;;;12.70;9.20;;;;;;;7.29;61.47;100638.10;106125;1306;21960;-75
2022/11/20 03:56:08;;;;;;;15.10;10.10;;;;;;;7.28;61.46;100629.55;106011;1306;21973;-69
2022/11/20 03:58:41;;;;;;;14.00;10.70;;;;;;;7.29;61.66;100622.04;105988;1301;21965;-63
2022/11/20 04:01:12;;;;;;;15.10;10.00;;;;;;;7.32;61.57;100611.58;105988;1305;23635;-74
2022/11/20 04:03:39;;;;;;;13.20;9.50;;;;;;;7.34;61.47;100605.64;106052;1305;21954;-63
2022/11/20 04:06:06;;;;;;;18.80;10.60;;;;;;;7.33;61.39;100605.65;105724;1306;21954;-63
2022/11/20 04:08:32;;;;;;;15.10;10.70;;;;;;;7.31;61.51;100613.48;106084;1305;21968;-63
2022/11/20 04:11:08;;;;;;;13.60;9.40;;;;;;;7.28;61.52;100620.63;105747;1306;22001;-63
2022/11/20 04:13:35;;;;;;;14.50;10.40;;;;;;;7.28;61.57;100618.55;105766;1306;21969;-72
2022/11/20 04:16:00;;;;;;;16.20;9.60;;;;;;;7.27;61.65;100613.31;105985;1306;21969;-63
2022/11/20 04:18:26;;;;;;;13.90;8.90;;;;;;;7.29;61.51;100611.56;105992;1305;22027;-64
2022/11/20 04:20:52;;;;;;;12.60;8.60;;;;;;;7.31;61.59;100603.89;105959;1306;21961;-64
2022/11/20 04:23:17;;;;;;;13.90;8.90;;;;;;;7.33;61.66;100597.79;105944;1306;21960;-74
2022/11/20 04:25:43;;;;;;;13.20;9.40;;;;;;;7.34;61.36;100595.02;105225;1305;1006474;-63
2022/11/20 04:28:09;;;;;;;11.50;8.70;;;;;;;7.33;61.43;100582.77;105995;1306;21961;-75
2022/11/20 04:30:36;;;;;;;15.50;9.60;;;;;;;7.33;61.38;100573.35;106040;1306;21968;-74
2022/11/20 04:33:01;;;;;;;11.80;9.10;;;;;;;7.33;61.38;100561.13;105944;1306;23090;-63
2022/11/20 04:35:27;;;;;;;13.20;9.40;;;;;;;7.33;61.38;100551.70;105957;1305;21972;-63
2022/11/20 04:37:53;;;;;;;14.50;9.90;;;;;;;7.33;61.39;100541.93;105920;1305;21959;-63
2022/11/20 04:40:19;;;;;;;14.10;9.80;;;;;;;7.33;61.51;100539.48;106009;1306;21956;-73
2022/11/20 04:42:45;;;;;;;13.10;9.80;;;;;;;7.33;61.46;100534.95;106023;1306;22464;-73
2022/11/20 04:45:11;;;;;;;14.80;9.50;;;;;;;7.33;61.23;100533.37;105942;1306;23612;-61
2022/11/20 04:47:37;;;;;;;11.90;8.30;;;;;;;7.34;61.49;100533.55;105683;1307;21968;-62
2022/11/20 04:50:03;;;;;;;11.50;8.10;;;;;;;7.34;61.48;100533.38;105956;1305;22008;-61
2022/11/20 04:52:29;;;;;;;14.60;9.10;;;;;;;7.33;61.56;100534.41;106111;1306;23707;-72
2022/11/20 04:54:55;;;;;;;12.20;9.10;;;;;;;7.32;61.71;100532.49;105919;1306;21969;-73
2022/11/20 04:57:20;;;;;;;15.20;9.00;;;;;;;7.29;61.45;100527.42;106034;1306;21968;-60
2022/11/20 04:59:47;;;;;;;10.50;8.60;;;;;;;7.25;61.67;100524.63;106071;1303;21953;-63
2022/11/20 05:02:13;;;;;;;11.90;9.00;;;;;;;7.23;61.58;100523.91;106045;1306;21962;-61
2022/11/20 05:04:42;;;;;;;13.50;8.30;;;;;;;7.25;61.77;100522.36;106017;1306;22072;-61
2022/11/20 05:07:08;;;;;;;10.30;8.00;;;;;;;7.24;61.91;100518.00;105876;1306;21967;-60
2022/11/20 05:09:33;;;;;;;14.40;9.30;;;;;;;7.25;61.95;100509.44;105620;1307;21969;-62
2022/11/20 05:12:00;;;;;;;16.90;9.40;;;;;;;7.27;61.84;100515.04;105860;1306;22001;-60
2022/11/20 05:14:26;;;;;;;14.00;9.30;;;;;;;7.31;61.81;100516.08;107878;1306;21898;-62
2022/11/20 05:16:51;;;;;;;17.80;8.20;;;;;;;7.32;61.48;100521.67;105797;1301;312574;-74
2022/11/20 05:19:17;;;;;;;25.80;8.70;;;;;;;7.33;61.90;100528.83;105954;1306;22007;-70
2022/11/20 05:21:42;;;;;;;13.90;8.70;;;;;;;7.34;62.02;100521.85;105926;1306;21965;-70
2022/11/20 05:24:08;;;;;;;21.30;9.10;;;;;;;7.34;62.06;100508.41;106018;1306;21970;-60
2022/11/20 05:26:38;;;;;;;15.30;9.60;;;;;;;7.34;61.62;100503.01;106044;1306;22014;-70
2022/11/20 05:29:03;;;;;;;18.50;8.90;;;;;;;7.32;61.75;100497.23;105803;1306;21965;-68
2022/11/20 05:31:31;;;;;;;16.30;8.70;;;;;;;7.30;61.87;100496.52;105999;1306;21975;-70
2022/11/20 05:33:57;;;;;;;16.90;8.60;;;;;;;7.28;61.82;100504.91;106029;1306;21968;-60
2022/11/20 05:36:22;;;;;;;11.50;7.80;;;;;;;7.26;61.72;100492.52;105788;1307;21963;-60
2022/11/20 05:38:48;;;;;;;12.90;7.90;;;;;;;7.24;61.89;100484.66;106003;1306;21972;-61
2022/11/20 05:41:18;;;;;;;12.20;8.30;;;;;;;7.26;61.88;100478.02;106019;1306;21968;-72
2022/11/20 05:43:45;;;;;;;12.50;8.40;;;;;;;7.29;61.88;100475.77;105999;1306;21928;-71
2022/11/20 05:46:12;;;;;;;11.60;7.20;;;;;;;7.35;61.81;100482.58;106087;1306;22025;-69
2022/11/20 05:48:40;;;;;;;11.00;7.70;;;;;;;7.35;61.91;100477.52;106043;1306;21981;-61
2022/11/20 05:51:07;;;;;;;10.50;7.70;;;;;;;7.31;61.95;100475.59;106009;1298;21975;-60
2022/11/20 05:53:35;;;;;;;14.00;8.40;;;;;;;7.22;62.03;100472.43;106054;1306;22024;-60
2022/11/20 05:56:06;;;;;;;13.00;8.80;;;;;;;7.08;62.09;100462.80;106030;1306;21967;-70
2022/11/20 05:58:32;;;;;;;13.20;7.90;;;;;;;6.97;61.97;100461.01;106085;1305;21971;-70
2022/11/20 06:01:05;;;;;;;9.60;7.70;;;;;;;6.91;62.15;100466.91;106065;1306;21958;-62
2022/11/20 06:03:33;;;;;;;9.40;7.30;;;;;;;6.98;62.37;100466.41;105973;1302;21978;-62
2022/11/20 06:05:59;;;;;;;16.80;8.10;;;;;;;7.08;62.40;100467.67;106049;1306;21959;-62
2022/11/20 06:08:27;;;;;;;10.40;7.40;;;;;;;7.18;62.42;100460.54;106056;1306;21967;-69
2022/11/20 06:10:53;;;;;;;12.00;8.50;;;;;;;7.25;62.47;100456.38;105965;1306;21966;-62
2022/11/20 06:13:18;;;;;;;10.30;7.90;;;;;;;7.32;62.68;100450.28;106024;1300;21976;-62
2022/11/20 06:15:52;;;;;;;13.50;7.70;;;;;;;7.35;62.55;100447.48;106017;1303;21964;-69
2022/11/20 06:18:19;;;;;;;11.40;7.40;;;;;;;7.40;62.55;100437.91;106029;1306;21964;-60
2022/11/20 06:20:45;;;;;;;18.80;8.90;;;;;;;7.46;62.46;100435.30;105979;1306;21957;-61
2022/11/20 06:23:11;;;;;;;13.70;8.00;;;;;;;7.50;62.62;100436.70;106024;1306;21961;-68
2022/11/20 06:25:38;;;;;;;12.30;7.80;;;;;;;7.55;62.77;100444.04;106036;1301;21978;-69
2022/11/20 06:28:04;;;;;;;12.00;8.10;;;;;;;7.56;62.49;100445.27;106105;1306;21960;-68
2022/11/20 06:30:31;;;;;;;12.00;7.50;;;;;;;7.57;62.51;100450.15;106022;1306;22082;-61
2022/11/20 06:32:58;;;;;;;10.90;7.70;;;;;;;7.62;62.54;100447.20;106118;1303;21959;-61
2022/11/20 06:35:25;;;;;;;9.70;7.80;;;;;;;7.65;62.43;100435.67;106087;1307;21970;-62
2022/11/20 06:37:50;;;;;;;12.30;8.10;;;;;;;7.67;62.41;100441.44;106097;1306;21961;-61
2022/11/20 06:40:17;;;;;;;12.00;8.30;;;;;;;7.68;62.35;100433.40;105711;1306;21962;-69
2022/11/20 06:42:44;;;;;;;11.20;7.90;;;;;;;7.69;62.45;100427.81;105895;1306;21957;-61
2022/11/20 06:45:10;;;;;;;9.80;7.20;;;;;;;7.70;62.31;100430.95;106048;1306;21971;-61
2022/11/20 06:47:38;;;;;;;13.70;7.40;;;;;;;7.69;62.41;100436.38;105828;1306;21976;-62
2022/11/20 06:50:06;;;;;;;13.00;8.00;;;;;;;7.70;62.40;100436.55;105903;1306;21975;-62
2022/11/20 06:52:32;;;;;;;11.10;8.20;;;;;;;7.71;62.40;100442.84;106070;1306;21962;-61
2022/11/20 06:55:08;;;;;;;9.70;8.20;;;;;;;7.74;62.25;100435.84;106063;1306;21959;-70
2022/11/20 06:57:38;;;;;;;13.80;8.50;;;;;;;7.80;62.35;100426.59;105861;1305;21967;-62
2022/11/20 07:00:04;;;;;;;12.40;8.90;;;;;;;7.80;62.53;100414.02;106036;1306;21967;-61
2022/11/20 07:02:31;;;;;;;14.20;9.00;;;;;;;7.81;62.31;100405.45;105999;1306;23621;-60
2022/11/20 07:04:58;;;;;;;11.00;7.70;;;;;;;7.84;62.32;100402.30;105775;1306;21958;-70
2022/11/20 07:07:23;;;;;;;13.20;8.60;;;;;;;7.86;62.38;100411.39;106052;1306;21961;-74
2022/11/20 07:09:49;;;;;;;9.20;7.80;;;;;;;7.90;62.36;100414.70;105989;1296;21984;-61
2022/11/20 07:12:15;;;;;;;10.30;7.70;;;;;;;7.92;62.43;100414.19;105973;1306;21962;-71
2022/11/20 07:14:42;;;;;;;11.60;7.60;;;;;;;7.95;62.26;100406.48;105968;1306;21971;-61
2022/11/20 07:17:09;;;;;;;10.50;6.80;;;;;;;7.95;62.30;100389.90;105995;1306;21961;-61
2022/11/20 07:19:36;;;;;;;9.10;6.90;;;;;;;7.94;62.34;100375.58;105949;1305;21960;-60
2022/11/20 07:22:08;;;;;;;9.40;7.60;;;;;;;7.96;62.67;100374.52;105931;1306;21961;-60
2022/11/20 07:24:37;;;;;;;11.10;7.30;;;;;;;8.00;62.41;100376.42;106020;1304;22136;-69
2022/11/20 07:27:08;;;;;;;9.40;8.00;;;;;;;7.97;62.75;100378.88;105732;1306;23076;-69
2022/11/20 07:29:35;;;;;;;9.10;7.20;;;;;;;7.97;62.73;100370.30;106012;1306;22967;-59
2022/11/20 07:32:01;;;;;;;11.10;6.90;;;;;;;7.99;62.63;100359.64;105958;1306;21994;-69
2022/11/20 07:34:35;;;;;;;7.80;6.10;;;;;;;8.00;62.85;100350.90;105968;1306;21965;-60
2022/11/20 07:37:01;;;;;;;10.50;7.00;;;;;;;8.02;62.90;100351.44;105973;1304;21961;-60
2022/11/20 07:39:27;;;;;;;8.10;6.70;;;;;;;8.02;62.77;100353.35;105924;1304;21960;-67
2022/11/20 07:41:54;;;;;;;10.20;6.80;;;;;;;8.03;62.69;100357.55;106004;1305;21935;-68
2022/11/20 07:44:21;;;;;;;10.50;6.70;;;;;;;8.04;62.79;100352.65;105974;1306;21972;-67
2022/11/20 07:46:48;;;;;;;9.20;6.90;;;;;;;8.04;62.91;100356.67;105983;1306;21963;-60
2022/11/20 07:49:13;;;;;;;9.30;7.00;;;;;;;8.05;62.88;100362.79;106009;1306;21983;-68
2022/11/20 07:51:40;;;;;;;7.90;6.60;;;;;;;8.08;62.92;100363.48;106012;1295;22049;-70
2022/11/20 07:54:06;;;;;;;8.90;6.50;;;;;;;8.11;62.84;100357.53;105972;1296;22419;-70
2022/11/20 07:56:33;;;;;;;11.30;8.30;;;;;;;8.12;62.92;100352.80;105974;1306;21951;-61
2022/11/20 07:58:58;;;;;;;9.80;6.70;;;;;;;8.15;62.96;100354.89;105982;1306;21964;-68
2022/11/20 08:01:24;;;;;;;8.10;6.70;;;;;;;8.18;62.91;100350.33;106055;1306;21984;-69
2022/11/20 08:03:51;;;;;;;10.20;6.40;;;;;;;8.21;62.94;100340.89;105978;1306;21953;-61
2022/11/20 08:06:20;;;;;;;7.80;7.00;;;;;;;8.23;62.95;100337.56;106078;1306;22490;-62
2022/11/20 08:08:46;;;;;;;;;;;;;;;8.25;62.91;100338.27;105998;1304;21931;-60
2022/11/20 08:14:13;;;;;;;7.30;5.60;;;;;;;8.32;62.81;100330.02;105710;1306;21965;-68
2022/11/20 08:16:44;;;;;;;6.70;5.40;;;;;;;8.37;62.84;100324.41;106002;1304;22138;-61
2022/11/20 08:19:10;;;;;;;7.30;5.70;;;;;;;8.38;62.91;100311.99;106014;1304;21973;-60
2022/11/20 08:21:40;;;;;;;;;;;;;;;8.39;62.91;100303.23;106024;1304;21938;-61
2022/11/20 08:24:07;;;;;;;7.60;5.70;;;;;;;8.40;62.91;100296.23;105764;1306;21964;-61
2022/11/20 08:26:33;;;;;;;6.90;5.50;;;;;;;8.41;62.84;100289.77;105950;1305;21960;-67
2022/11/20 08:28:59;;;;;;;7.80;5.20;;;;;;;8.42;62.85;100286.27;106053;1307;21960;-67
2022/11/20 08:31:26;;;;;;;7.40;5.60;;;;;;;8.45;62.74;100278.89;105259;1306;1002641;-61
2022/11/20 08:33:53;;;;;;;9.10;6.80;;;;;;;8.48;62.83;100279.24;105769;1300;23078;-68
2022/11/20 08:36:21;;;;;;;9.30;6.80;;;;;;;8.52;62.93;100271.38;105971;1306;21968;-61
2022/11/20 08:38:52;;;;;;;8.80;6.50;;;;;;;8.54;63.02;100260.00;105974;1305;21967;-61
2022/11/20 08:41:23;;;;;;;7.20;5.70;;;;;;;8.56;63.00;100253.35;105969;1306;21961;-69
2022/11/20 08:43:57;;;;;;;7.00;5.50;;;;;;;8.57;63.05;100241.97;106075;1306;22004;-61
2022/11/20 08:46:24;;;;;;;6.40;5.40;;;;;;;8.57;63.04;100237.07;106035;1293;21998;-69
2022/11/20 08:48:50;;;;;;;5.50;4.70;;;;;;;8.59;63.13;100226.74;105995;1305;21978;-61
2022/11/20 08:51:15;;;;;;;5.90;4.60;;;;;;;8.64;63.12;100213.06;105996;1302;21964;-61
2022/11/20 08:53:43;;;;;;;8.70;6.00;;;;;;;8.70;63.13;100194.13;105994;1307;21964;-69
2022/11/20 08:56:12;;;;;;;6.40;5.50;;;;;;;8.74;63.29;100180.11;106093;1307;21964;-60
2022/11/20 08:58:40;;;;;;;6.40;5.20;;;;;;;8.84;62.95;100167.25;106029;1297;21954;-70
2022/11/20 09:01:06;;;;;;;6.10;4.30;;;;;;;8.87;62.70;100165.29;105985;1305;21963;-62
2022/11/20 09:03:33;;;;;;;6.60;4.30;;;;;;;8.87;62.60;100165.65;106017;1305;21959;-71
2022/11/20 09:06:05;;;;;;;8.80;4.40;;;;;;;8.88;62.73;100164.94;105973;1306;21959;-69
2022/11/20 09:08:31;;;;;;;6.90;4.90;;;;;;;8.88;62.75;100166.16;105989;1306;21964;-71
2022/11/20 09:10:57;;;;;;;8.70;4.50;;;;;;;8.86;62.95;100167.41;106011;1306;21975;-71
2022/11/20 09:13:24;;;;;;;9.90;4.50;;;;;;;8.79;63.10;100171.67;106097;1302;21963;-61
2022/11/20 09:15:57;;;;;;;7.30;4.50;;;;;;;8.77;63.31;100166.79;106084;1305;21962;-71
2022/11/20 09:18:24;;;;;;;11.00;4.40;;;;;;;8.78;63.36;100152.27;105395;1301;1002668;-61
2022/11/20 09:20:50;;;;;;;7.90;4.40;;;;;;;8.77;63.30;100148.41;105987;1306;21954;-61
2022/11/20 09:23:16;;;;;;;9.50;5.00;;;;;;;8.78;63.48;100149.11;105966;1306;21960;-61
2022/11/20 09:25:42;;;;;;;8.50;4.90;;;;;;;8.84;63.72;100153.25;106038;1301;22001;-73
2022/11/20 09:28:08;;;;;;;7.90;4.90;;;;;;;8.88;63.47;100157.77;105985;1306;21958;-72
2022/11/20 09:30:34;;;;;;;11.50;4.20;;;;;;;8.89;63.40;100156.89;106086;1306;21966;-71
2022/11/20 09:33:00;;;;;;;10.70;4.40;;;;;;;8.90;63.45;100155.64;106088;1307;21964;-71
2022/11/20 09:35:26;;;;;;;12.10;6.70;;;;;;;8.93;63.53;100143.20;106123;1305;21979;-61
2022/11/20 09:37:51;;;;;;;15.70;5.90;;;;;;;8.94;63.53;100138.45;106144;1305;21960;-72
2022/11/20 09:40:27;;;;;;;14.70;5.80;;;;;;;8.96;63.50;100133.73;106097;1306;21956;-72
2022/11/20 09:43:16;;;;;;;9.00;5.50;;;;;;;9.00;63.58;100126.69;105983;1306;21954;-61
2022/11/20 09:46:05;;;;;;;8.80;5.20;;;;;;;9.03;63.57;100121.58;105950;1306;22017;-61
2022/11/20 09:49:04;;;;;;;7.60;5.10;;;;;;;9.04;63.56;100118.77;105983;1306;21962;-71
2022/11/20 09:51:52;;;;;;;;;;;;;;;9.03;63.41;100119.83;106302;1302;21957;-62
2022/11/20 09:54:26;;;;;;;8.90;4.40;;;;;;;9.04;63.40;100113.88;105780;1307;21963;-72
2022/11/20 09:57:00;;;;;;;6.50;4.70;;;;;;;9.05;63.45;100111.06;105808;1309;21969;-61
2022/11/20 09:59:45;;;;;;;5.80;4.00;;;;;;;9.06;63.39;100115.41;105839;1307;22573;-71
2022/11/20 10:02:14;;;;;;;6.50;5.00;;;;;;;9.06;63.47;100118.91;105935;1306;21957;-71
2022/11/20 10:04:48;;;;;;;7.00;4.80;;;;;;;9.12;63.37;100123.93;105151;1306;1002879;-61
2022/11/20 10:07:37;;;;;;;7.40;5.20;;;;;;;9.15;63.36;100122.16;105957;1299;21959;-69
2022/11/20 10:10:04;;;;;;;12.50;5.00;;;;;;;9.25;63.26;100112.41;106034;1306;21976;-72
2022/11/20 10:13:21;;;;;;;8.60;4.50;;;;;;;9.29;63.17;100107.11;105962;1301;21976;-71
2022/11/20 10:15:58;;;;;;;8.50;5.00;;;;;;;9.40;63.17;100102.27;105630;1307;21961;-72
2022/11/20 10:18:55;;;;;;;10.10;5.40;;;;;;;9.46;63.12;100097.65;106068;1307;21957;-62
2022/11/20 10:21:36;;;;;;;9.00;5.70;;;;;;;9.50;63.08;100097.40;106059;1306;22004;-71
2022/11/20 10:24:05;;;;;;;8.40;5.00;;;;;;;9.54;62.87;100097.01;106075;1301;21960;-71
2022/11/20 10:26:35;;;;;;;7.90;4.70;;;;;;;9.55;62.88;100094.38;105950;1306;21958;-62
2022/11/20 10:29:05;;;;;;;12.30;5.60;;;;;;;9.59;62.97;100090.13;106070;1307;21957;-71
2022/11/20 10:31:42;;;;;;;7.90;4.60;;;;;;;9.62;62.94;100075.73;105759;1304;21974;-70
2022/11/20 10:34:14;;;;;;;7.50;5.20;;;;;;;9.67;62.87;100071.63;106031;1301;21961;-62
2022/11/20 10:36:45;;;;;;;7.60;4.40;;;;;;;9.70;62.85;100058.98;106079;1306;21958;-62
2022/11/20 10:39:22;;;;;;;9.30;4.30;;;;;;;9.70;62.74;100057.05;106028;1306;21981;-70
2022/11/20 10:41:49;;;;;;;6.50;4.50;;;;;;;9.76;62.71;100049.95;106089;1295;21963;-70
2022/11/20 10:47:17;;;;;;;5.80;3.80;;;;;;;9.84;62.52;100040.56;106012;1303;22002;-71
2022/11/20 10:49:45;;;;;;;8.10;4.70;;;;;;;9.83;62.74;100024.96;106136;1303;21958;-71
2022/11/20 10:52:35;;;;;;;5.80;4.10;;;;;;;9.86;62.68;100013.38;106256;1292;21960;-61
2022/11/20 10:55:19;;;;;;;9.10;4.70;;;;;;;9.86;62.59;99994.79;106147;1303;21981;-61
2022/11/20 10:58:16;;;;;;;6.20;3.70;;;;;;;9.86;62.68;99985.16;106164;1304;21953;-62
2022/11/20 11:00:42;;;;;;;5.60;4.20;;;;;;;9.87;62.59;99987.58;106142;1303;21956;-62
2022/11/20 11:03:27;;;;;;;5.60;4.70;;;;;;;9.87;62.75;99986.19;106229;1303;21968;-71
2022/11/20 11:06:20;;;;;;;5.50;4.50;;;;;;;9.88;62.79;99986.86;106106;1306;21966;-66
2022/11/20 11:08:46;;;;;;;5.80;4.20;;;;;;;9.92;62.80;99993.99;106131;1306;21979;-62
2022/11/20 11:11:27;;;;;;;7.30;4.50;;;;;;;9.94;62.68;99997.64;105773;1307;22082;-62
2022/11/20 11:13:53;;;;;;;6.90;4.30;;;;;;;9.97;62.69;99987.08;106102;1306;21961;-73
2022/11/20 11:16:23;;;;;;;7.10;4.30;;;;;;;10.01;62.72;99979.84;106112;1304;21959;-73
2022/11/20 11:18:49;;;;;;;5.90;4.30;;;;;;;10.03;62.78;99985.59;106229;1302;22014;-62
2022/11/20 11:21:21;;;;;;;6.40;4.20;;;;;;;10.04;62.71;99979.08;106142;1303;21957;-67
2022/11/20 11:23:48;;;;;;;6.30;4.90;;;;;;;10.04;62.87;99965.23;106181;1303;21960;-62
2022/11/20 11:26:21;;;;;;;6.00;4.20;;;;;;;10.06;62.95;99949.09;105748;1307;22012;-62
2022/11/20 11:28:57;;;;;;;5.80;4.40;;;;;;;10.08;62.84;99950.45;106217;1303;21959;-73
2022/11/20 11:31:27;;;;;;;6.20;4.50;;;;;;;10.10;62.88;99949.52;106184;1303;21968;-73
2022/11/20 11:34:07;;;;;;;9.50;4.70;;;;;;;10.14;62.86;99949.47;106273;1304;21954;-74
2022/11/20 11:36:35;;;;;;;8.10;5.80;;;;;;;10.17;62.80;99957.64;106082;1303;21972;-62